createdAt,value
2022-12-11T00:00:16.984Z,10.333333
2022-12-11T00:05:19.654Z,15.000000
2022-12-11T00:10:22.566Z,15.000000
2022-12-11T00:15:25.613Z,11.000000
2022-12-11T00:20:28.218Z,13.600000
2022-12-11T00:25:31.434Z,50.000000
2022-12-11T00:30:34.294Z,47.600000
2022-12-11T00:35:16.588Z,14.000000
2022-12-11T00:40:19.962Z,14.000000
2022-12-11T00:45:22.689Z,14.000000
2022-12-11T00:50:25.583Z,14.000000
2022-12-11T00:55:28.251Z,15.000000
2022-12-11T01:00:31.067Z,14.800000
2022-12-11T01:05:34.251Z,12.000000
2022-12-11T01:10:17.919Z,11.800000
2022-12-11T01:15:19.715Z,9.000000
2022-12-11T01:20:22.539Z,9.000000
2022-12-11T01:25:25.505Z,11.000000
2022-12-11T01:30:29.015Z,12.066667
2022-12-11T01:35:31.926Z,27.000000
2022-12-11T01:40:36.234Z,26.533333
2022-12-11T01:45:17.560Z,20.000000
2022-12-11T01:50:20.442Z,19.866667
2022-12-11T01:55:23.248Z,18.000000
2022-12-11T02:00:26.850Z,18.000000
2022-12-11T02:05:28.695Z,19.000000
2022-12-11T02:10:32.302Z,19.466667
2022-12-11T02:15:35.797Z,26.000000
2022-12-11T02:20:17.678Z,26.400000
2022-12-11T02:25:20.482Z,32.000000
2022-12-11T02:30:22.982Z,32.000000
2022-12-11T02:35:25.853Z,16.000000
2022-12-11T02:40:28.306Z,16.200000
2022-12-11T02:45:31.323Z,19.000000
2022-12-11T02:50:33.341Z,18.800000
2022-12-11T02:55:16.227Z,16.000000
2022-12-11T03:00:18.814Z,16.066667
2022-12-11T03:05:21.905Z,17.000000
2022-12-11T03:10:24.561Z,17.000000
2022-12-11T03:15:27.452Z,27.000000
2022-12-11T03:20:29.683Z,26.066667
2022-12-11T03:25:32.300Z,13.000000
2022-12-11T03:30:36.221Z,13.466667
2022-12-11T03:35:17.913Z,20.000000
2022-12-11T03:40:20.446Z,19.533333
2022-12-11T03:45:23.044Z,13.000000
2022-12-11T03:50:26.329Z,13.000000
2022-12-11T03:55:29.341Z,11.000000
2022-12-11T04:00:32.144Z,11.066667
2022-12-11T04:05:35.452Z,12.000000
2022-12-11T04:10:17.751Z,12.133333
2022-12-11T04:15:20.552Z,14.000000
2022-12-11T04:20:23.255Z,14.000000
2022-12-11T04:25:27.653Z,22.000000
2022-12-11T04:30:34.169Z,21.466667
2022-12-11T04:35:33.142Z,14.000000
2022-12-11T04:40:37.021Z,14.533333
2022-12-11T04:45:18.308Z,22.000000
2022-12-11T04:50:21.737Z,22.133333
2022-12-11T04:55:24.281Z,24.000000
2022-12-11T05:00:26.777Z,23.133333
2022-12-11T05:05:29.593Z,11.000000
2022-12-11T05:10:32.337Z,10.933333
2022-12-11T05:15:35.148Z,10.000000
2022-12-11T05:20:17.256Z,10.066667
2022-12-11T05:25:19.872Z,11.000000
2022-12-11T05:30:24.909Z,11.000000
2022-12-11T05:35:27.060Z,6.000000
2022-12-11T05:40:30.016Z,6.200000
2022-12-11T05:45:32.908Z,9.000000
2022-12-11T05:50:35.433Z,9.000000
2022-12-11T05:55:17.878Z,9.000000
2022-12-11T06:00:21.410Z,8.800000
2022-12-11T06:05:23.564Z,6.000000
2022-12-11T06:10:26.254Z,6.000000
2022-12-11T06:15:28.910Z,5.000000
2022-12-11T06:20:31.591Z,5.200000
2022-12-11T06:25:34.108Z,8.000000
2022-12-11T06:30:16.998Z,8.000000
2022-12-11T06:35:19.766Z,8.000000
2022-12-11T06:40:22.655Z,8.000000
2022-12-11T06:45:25.219Z,5.000000
2022-12-11T06:50:27.998Z,5.133333
2022-12-11T06:55:30.312Z,7.000000
2022-12-11T07:00:33.027Z,7.133333
2022-12-11T07:05:35.967Z,9.000000
2022-12-11T07:10:18.019Z,8.800000
2022-12-11T07:15:20.916Z,6.000000
2022-12-11T07:20:23.655Z,6.000000
2022-12-11T07:25:26.413Z,10.000000
2022-12-11T07:30:29.661Z,9.866667
2022-12-11T07:35:32.345Z,8.000000
2022-12-11T07:40:35.522Z,8.000000
2022-12-11T07:45:17.999Z,8.000000
2022-12-11T07:50:20.886Z,8.000000
2022-12-11T07:55:24.192Z,8.000000
2022-12-11T08:00:27.291Z,7.933333
2022-12-11T08:05:30.337Z,7.000000
2022-12-11T08:10:32.854Z,7.000000
2022-12-11T08:15:17.483Z,7.000000
2022-12-11T08:20:19.054Z,6.800000
2022-12-11T08:25:20.943Z,4.000000
2022-12-11T08:30:24.262Z,4.000000
2022-12-11T08:35:27.252Z,7.000000
2022-12-11T08:40:30.161Z,6.933333
2022-12-11T08:45:32.960Z,6.000000
2022-12-11T08:50:35.787Z,5.866667
2022-12-11T08:55:18.846Z,4.000000
2022-12-11T09:00:21.849Z,4.200000
2022-12-11T09:05:24.275Z,7.000000
2022-12-11T09:10:27.447Z,6.933333
2022-12-11T09:15:30.090Z,6.000000
2022-12-11T09:20:32.460Z,6.066667
2022-12-11T09:25:35.500Z,7.000000
2022-12-11T09:30:18.147Z,7.066667
2022-12-11T09:35:21.376Z,8.000000
2022-12-11T09:40:24.314Z,8.000000
2022-12-11T09:45:26.851Z,6.000000
2022-12-11T09:50:29.369Z,6.000000
2022-12-11T09:55:32.008Z,6.000000
2022-12-11T10:00:34.412Z,6.000000
2022-12-11T10:05:16.922Z,6.000000
2022-12-11T10:10:19.898Z,6.066667
2022-12-11T10:15:23.162Z,7.000000
2022-12-11T10:20:26.400Z,6.933333
2022-12-11T10:25:29.593Z,6.000000
2022-12-11T10:30:34.636Z,6.066667
2022-12-11T10:35:34.669Z,7.000000
2022-12-11T10:40:16.769Z,7.000000
2022-12-11T10:45:19.672Z,7.000000
2022-12-11T10:50:22.291Z,7.000000
2022-12-11T10:55:25.100Z,7.000000
2022-12-11T11:00:27.773Z,6.933333
2022-12-11T11:05:30.135Z,6.000000
2022-12-11T11:10:33.218Z,6.000000
2022-12-11T11:15:36.018Z,6.000000
2022-12-11T11:20:20.000Z,6.066667
2022-12-11T11:25:22.751Z,7.000000
2022-12-11T11:30:24.556Z,7.000000
2022-12-11T11:35:26.832Z,6.000000
2022-12-11T11:40:30.613Z,6.066667
2022-12-11T11:45:32.196Z,7.000000
2022-12-11T11:50:34.532Z,7.000000
2022-12-11T11:55:21.771Z,7.000000
2022-12-11T12:00:19.628Z,6.933333
2022-12-11T12:05:22.964Z,6.000000
2022-12-11T12:10:26.236Z,6.000000
2022-12-11T12:15:28.505Z,4.000000
2022-12-11T12:20:31.509Z,4.133333
2022-12-11T12:25:33.860Z,6.000000
2022-12-11T12:30:22.099Z,6.533333
2022-12-11T12:35:19.710Z,14.000000
2022-12-11T12:40:22.638Z,14.000000
2022-12-11T12:45:25.075Z,5.000000
2022-12-11T12:50:27.680Z,5.066667
2022-12-11T12:55:30.398Z,6.000000
2022-12-11T13:00:32.926Z,6.066667
2022-12-11T13:05:35.575Z,7.000000
2022-12-11T13:10:17.925Z,7.066667
2022-12-11T13:15:20.766Z,8.000000
2022-12-11T13:20:23.099Z,8.000000
2022-12-11T13:25:26.665Z,4.000000
2022-12-11T13:30:29.676Z,4.133333
2022-12-11T13:35:32.598Z,6.000000
2022-12-11T13:40:35.071Z,6.200000
2022-12-11T13:45:17.333Z,9.000000
2022-12-11T13:50:20.331Z,8.733333
2022-12-11T13:55:23.470Z,5.000000
2022-12-11T14:00:26.473Z,5.000000
2022-12-11T14:05:29.166Z,7.000000
2022-12-11T14:10:31.460Z,7.066667
2022-12-11T14:15:34.439Z,8.000000
2022-12-11T14:20:16.778Z,7.933333
2022-12-11T14:25:20.130Z,7.000000
2022-12-11T14:30:22.800Z,7.000000
2022-12-11T14:35:25.427Z,6.000000
2022-12-11T14:40:28.515Z,6.066667
2022-12-11T14:45:31.903Z,7.000000
2022-12-11T14:50:34.439Z,6.933333
2022-12-11T14:55:17.489Z,6.000000
2022-12-11T15:00:20.987Z,6.066667
2022-12-11T15:05:25.232Z,7.000000
2022-12-11T15:10:27.300Z,6.933333
2022-12-11T15:15:30.035Z,6.000000
2022-12-11T15:20:32.974Z,6.000000
2022-12-11T15:25:35.712Z,6.000000
2022-12-11T15:30:18.734Z,6.000000
2022-12-11T15:35:22.004Z,6.000000
2022-12-11T15:40:24.092Z,6.000000
2022-12-11T15:45:27.029Z,6.000000
2022-12-11T15:50:29.507Z,6.333333
2022-12-11T15:55:32.202Z,11.000000
2022-12-11T16:00:35.097Z,10.666667
2022-12-11T16:05:17.508Z,6.000000
2022-12-11T16:10:21.152Z,5.933333
2022-12-11T16:15:24.082Z,5.000000
2022-12-11T16:20:26.014Z,5.000000
2022-12-11T16:25:28.992Z,9.000000
2022-12-11T16:30:31.852Z,8.866667
2022-12-11T16:35:35.934Z,7.000000
2022-12-11T16:40:16.981Z,6.800000
2022-12-11T16:45:20.770Z,4.000000
2022-12-11T16:50:22.711Z,4.000000
2022-12-11T16:55:26.388Z,7.000000
2022-12-11T17:00:28.569Z,6.933333
2022-12-11T17:05:31.657Z,6.000000
2022-12-11T17:10:33.954Z,5.866667
2022-12-11T17:15:16.747Z,4.000000
2022-12-11T17:20:19.567Z,4.133333
2022-12-11T17:25:23.261Z,6.000000
2022-12-11T17:30:24.863Z,6.000000
2022-12-11T17:35:27.481Z,6.000000
2022-12-11T17:40:30.564Z,5.866667
2022-12-11T17:45:33.177Z,4.000000
2022-12-11T17:50:16.041Z,4.133333
2022-12-11T17:55:19.206Z,6.000000
2022-12-11T18:00:21.894Z,6.133333
2022-12-11T18:05:25.785Z,8.000000
2022-12-11T18:10:28.784Z,8.133333
2022-12-11T18:15:32.068Z,10.000000
2022-12-11T18:20:34.931Z,9.933333
2022-12-11T18:25:18.290Z,9.000000
2022-12-11T18:30:20.285Z,8.733333
2022-12-11T18:35:23.283Z,5.000000
2022-12-11T18:40:26.324Z,5.066667
2022-12-11T18:45:30.262Z,6.000000
2022-12-11T18:50:31.808Z,6.000000
2022-12-11T18:55:35.169Z,6.000000
2022-12-11T19:00:17.476Z,5.933333
2022-12-11T19:05:20.788Z,5.000000
2022-12-11T19:10:24.292Z,5.000000
2022-12-11T19:15:27.088Z,8.000000
2022-12-11T19:20:48.619Z,7.733333
2022-12-11T19:25:34.025Z,4.000000
2022-12-11T19:30:35.513Z,4.200000
2022-12-11T19:35:17.962Z,7.000000
2022-12-11T19:40:21.612Z,6.933333
2022-12-11T19:45:24.594Z,6.000000
2022-12-11T19:50:27.310Z,5.933333
2022-12-11T19:55:31.458Z,5.000000
2022-12-11T20:00:34.041Z,5.066667
2022-12-11T20:05:35.956Z,6.000000
2022-12-11T20:10:18.396Z,6.066667
2022-12-11T20:15:21.279Z,7.000000
2022-12-11T20:20:24.361Z,7.000000
2022-12-11T20:25:26.855Z,5.000000
2022-12-11T20:30:29.758Z,5.200000
2022-12-11T20:35:34.276Z,8.000000
2022-12-11T20:40:35.965Z,8.000000
2022-12-11T20:45:18.522Z,8.000000
2022-12-11T20:50:21.736Z,8.000000
2022-12-11T20:55:24.469Z,6.000000
2022-12-11T21:00:27.051Z,6.066667
2022-12-11T21:05:30.025Z,7.000000
2022-12-11T21:10:32.744Z,7.000000
2022-12-11T21:15:35.844Z,7.000000
2022-12-11T21:20:19.094Z,7.000000
2022-12-11T21:25:23.154Z,7.000000
2022-12-11T21:30:24.805Z,7.000000
2022-12-11T21:35:27.608Z,7.000000
2022-12-11T21:40:30.141Z,7.066667
2022-12-11T21:46:02.732Z,8.000000
2022-12-11T21:50:16.083Z,8.000000
2022-12-11T21:55:18.764Z,8.000000
2022-12-11T22:00:22.121Z,8.133333
2022-12-11T22:05:25.380Z,10.000000
2022-12-11T22:10:27.310Z,10.133333
2022-12-11T22:15:30.385Z,12.000000
2022-12-11T22:20:33.866Z,11.800000
2022-12-11T22:25:35.311Z,9.000000
2022-12-11T22:30:19.996Z,8.866667
2022-12-11T22:35:26.850Z,7.000000
2022-12-11T22:40:25.213Z,7.000000
2022-12-11T22:45:27.752Z,6.000000
2022-12-11T22:50:30.403Z,6.066667
2022-12-11T22:55:33.211Z,7.000000
2022-12-11T23:00:35.548Z,7.066667
2022-12-11T23:05:17.903Z,8.000000
2022-12-11T23:10:20.414Z,8.066667
2022-12-11T23:15:23.260Z,9.000000
2022-12-11T23:20:25.975Z,9.000000
2022-12-11T23:25:28.622Z,10.000000
2022-12-11T23:30:31.483Z,9.800000
2022-12-11T23:35:34.416Z,7.000000
2022-12-11T23:40:16.800Z,7.000000
2022-12-11T23:45:19.693Z,7.000000
2022-12-11T23:50:22.670Z,7.000000
2022-12-11T23:55:26.039Z,8.000000
